sensor_id;sensor_type;location;lat;lon;timestamp;P1;durP1;ratioP1;P2;durP2;ratioP2
2710;SDS011;20721;47.402;8.550;2023-11-21T00:00:57;2.48;;;2.14;;
2710;SDS011;20721;47.402;8.550;2023-11-21T00:02:57;2.55;;;2.18;;
2710;SDS011;20721;47.402;8.550;2023-11-21T00:04:58;2.17;;;1.88;;
2710;SDS011;20721;47.402;8.550;2023-11-21T00:06:57;2.51;;;2.20;;
2710;SDS011;20721;47.402;8.550;2023-11-21T00:08:57;1.80;;;1.55;;
2710;SDS011;20721;47.402;8.550;2023-11-21T00:10:58;2.12;;;1.83;;
2710;SDS011;20721;47.402;8.550;2023-11-21T00:12:58;1.85;;;1.62;;
2710;SDS011;20721;47.402;8.550;2023-11-21T00:14:57;1.55;;;1.35;;
2710;SDS011;20721;47.402;8.550;2023-11-21T00:16:58;2.37;;;2.05;;
2710;SDS011;20721;47.402;8.550;2023-11-21T00:18:57;2.10;;;1.83;;
2710;SDS011;20721;47.402;8.550;2023-11-21T00:20:57;2.35;;;1.98;;
2710;SDS011;20721;47.402;8.550;2023-11-21T00:22:57;2.37;;;2.00;;
2710;SDS011;20721;47.402;8.550;2023-11-21T00:24:58;1.81;;;1.56;;
2710;SDS011;20721;47.402;8.550;2023-11-21T00:26:58;2.18;;;1.87;;
2710;SDS011;20721;47.402;8.550;2023-11-21T00:29:57;1.98;;;1.71;;
2710;SDS011;20721;47.402;8.550;2023-11-21T00:31:57;1.91;;;1.62;;
2710;SDS011;20721;47.402;8.550;2023-11-21T00:33:57;2.36;;;2.03;;
2710;SDS011;20721;47.402;8.550;2023-11-21T00:36:57;2.35;;;2.03;;
2710;SDS011;20721;47.402;8.550;2023-11-21T00:38:58;2.18;;;1.86;;
2710;SDS011;20721;47.402;8.550;2023-11-21T00:40:57;2.05;;;1.76;;
2710;SDS011;20721;47.402;8.550;2023-11-21T00:42:58;1.80;;;1.55;;
2710;SDS011;20721;47.402;8.550;2023-11-21T00:44:57;1.38;;;1.22;;
2710;SDS011;20721;47.402;8.550;2023-11-21T00:46:57;1.76;;;1.58;;
2710;SDS011;20721;47.402;8.550;2023-11-21T00:48:57;1.99;;;1.79;;
2710;SDS011;20721;47.402;8.550;2023-11-21T00:50:57;1.65;;;1.50;;
2710;SDS011;20721;47.402;8.550;2023-11-21T00:52:57;1.65;;;1.51;;
2710;SDS011;20721;47.402;8.550;2023-11-21T00:54:58;1.48;;;1.35;;
2710;SDS011;20721;47.402;8.550;2023-11-21T00:56:58;1.79;;;1.61;;
2710;SDS011;20721;47.402;8.550;2023-11-21T00:58:59;1.18;;;1.05;;
2710;SDS011;20721;47.402;8.550;2023-11-21T01:01:58;2.31;;;2.03;;
2710;SDS011;20721;47.402;8.550;2023-11-21T01:03:57;2.14;;;1.86;;
2710;SDS011;20721;47.402;8.550;2023-11-21T01:05:59;1.94;;;1.74;;
2710;SDS011;20721;47.402;8.550;2023-11-21T01:07:57;2.92;;;2.57;;
2710;SDS011;20721;47.402;8.550;2023-11-21T01:09:58;4.64;;;3.88;;
2710;SDS011;20721;47.402;8.550;2023-11-21T01:12:58;3.05;;;2.53;;
2710;SDS011;20721;47.402;8.550;2023-11-21T01:14:57;3.17;;;2.63;;
2710;SDS011;20721;47.402;8.550;2023-11-21T01:17:57;2.19;;;1.87;;
2710;SDS011;20721;47.402;8.550;2023-11-21T01:21:57;2.07;;;1.81;;
2710;SDS011;20721;47.402;8.550;2023-11-21T01:23:57;1.49;;;1.31;;
2710;SDS011;20721;47.402;8.550;2023-11-21T01:26:57;2.08;;;1.77;;
2710;SDS011;20721;47.402;8.550;2023-11-21T01:28:59;1.91;;;1.62;;
2710;SDS011;20721;47.402;8.550;2023-11-21T01:30:58;2.46;;;2.12;;
2710;SDS011;20721;47.402;8.550;2023-11-21T01:32:57;2.09;;;1.81;;
2710;SDS011;20721;47.402;8.550;2023-11-21T01:35:58;3.38;;;2.87;;
2710;SDS011;20721;47.402;8.550;2023-11-21T01:39:58;3.30;;;2.77;;
2710;SDS011;20721;47.402;8.550;2023-11-21T01:41:57;2.99;;;2.48;;
2710;SDS011;20721;47.402;8.550;2023-11-21T01:43:57;3.24;;;2.63;;
2710;SDS011;20721;47.402;8.550;2023-11-21T01:45:57;3.25;;;2.59;;
2710;SDS011;20721;47.402;8.550;2023-11-21T01:47:58;2.94;;;2.38;;
2710;SDS011;20721;47.402;8.550;2023-11-21T01:49:58;2.73;;;2.23;;
2710;SDS011;20721;47.402;8.550;2023-11-21T01:51:59;2.63;;;2.17;;
2710;SDS011;20721;47.402;8.550;2023-11-21T01:53:57;2.86;;;2.37;;
2710;SDS011;20721;47.402;8.550;2023-11-21T01:55:57;3.37;;;2.81;;
2710;SDS011;20721;47.402;8.550;2023-11-21T01:57:58;2.97;;;2.48;;
2710;SDS011;20721;47.402;8.550;2023-11-21T01:59:58;2.86;;;2.38;;
2710;SDS011;20721;47.402;8.550;2023-11-21T02:01:58;2.86;;;2.29;;
2710;SDS011;20721;47.402;8.550;2023-11-21T02:04:57;2.64;;;2.13;;
2710;SDS011;20721;47.402;8.550;2023-11-21T02:06:57;2.48;;;2.03;;
2710;SDS011;20721;47.402;8.550;2023-11-21T02:08:57;2.55;;;2.15;;
2710;SDS011;20721;47.402;8.550;2023-11-21T02:11:57;2.42;;;1.96;;
2710;SDS011;20721;47.402;8.550;2023-11-21T02:14:00;2.71;;;2.21;;
2710;SDS011;20721;47.402;8.550;2023-11-21T02:15:59;1.69;;;1.40;;
2710;SDS011;20721;47.402;8.550;2023-11-21T02:18:01;2.22;;;1.87;;
2710;SDS011;20721;47.402;8.550;2023-11-21T02:20:01;1.96;;;1.63;;
2710;SDS011;20721;47.402;8.550;2023-11-21T02:22:00;2.12;;;1.77;;
2710;SDS011;20721;47.402;8.550;2023-11-21T02:24:57;3.37;;;2.76;;
2710;SDS011;20721;47.402;8.550;2023-11-21T02:26:58;2.20;;;1.76;;
2710;SDS011;20721;47.402;8.550;2023-11-21T02:28:57;2.80;;;2.23;;
2710;SDS011;20721;47.402;8.550;2023-11-21T02:31:05;3.01;;;2.42;;
2710;SDS011;20721;47.402;8.550;2023-11-21T02:33:00;2.19;;;1.81;;
2710;SDS011;20721;47.402;8.550;2023-11-21T02:34:57;2.45;;;2.07;;
2710;SDS011;20721;47.402;8.550;2023-11-21T02:36:59;2.28;;;1.92;;
2710;SDS011;20721;47.402;8.550;2023-11-21T02:38:57;2.29;;;1.93;;
2710;SDS011;20721;47.402;8.550;2023-11-21T02:40:57;2.01;;;1.74;;
2710;SDS011;20721;47.402;8.550;2023-11-21T02:42:57;2.31;;;2.00;;
2710;SDS011;20721;47.402;8.550;2023-11-21T02:44:57;1.81;;;1.61;;
2710;SDS011;20721;47.402;8.550;2023-11-21T02:46:57;1.68;;;1.46;;
2710;SDS011;20721;47.402;8.550;2023-11-21T02:48:57;2.09;;;1.82;;
2710;SDS011;20721;47.402;8.550;2023-11-21T02:51:57;2.59;;;2.23;;
2710;SDS011;20721;47.402;8.550;2023-11-21T02:53:57;1.69;;;1.44;;
2710;SDS011;20721;47.402;8.550;2023-11-21T02:55:57;2.13;;;1.84;;
2710;SDS011;20721;47.402;8.550;2023-11-21T02:57:58;1.55;;;1.35;;
2710;SDS011;20721;47.402;8.550;2023-11-21T02:59:57;1.48;;;1.29;;
2710;SDS011;20721;47.402;8.550;2023-11-21T03:01:59;1.67;;;1.46;;
2710;SDS011;20721;47.402;8.550;2023-11-21T03:04:01;1.52;;;1.33;;
2710;SDS011;20721;47.402;8.550;2023-11-21T03:05:57;2.10;;;1.85;;
2710;SDS011;20721;47.402;8.550;2023-11-21T03:08:58;1.79;;;1.57;;
2710;SDS011;20721;47.402;8.550;2023-11-21T03:10:58;1.90;;;1.68;;
2710;SDS011;20721;47.402;8.550;2023-11-21T03:13:57;1.46;;;1.31;;
2710;SDS011;20721;47.402;8.550;2023-11-21T03:15:58;1.54;;;1.38;;
2710;SDS011;20721;47.402;8.550;2023-11-21T03:17:59;1.89;;;1.70;;
2710;SDS011;20721;47.402;8.550;2023-11-21T03:19:57;1.50;;;1.34;;
2710;SDS011;20721;47.402;8.550;2023-11-21T03:21:57;1.57;;;1.41;;
2710;SDS011;20721;47.402;8.550;2023-11-21T03:24:57;2.08;;;1.83;;
2710;SDS011;20721;47.402;8.550;2023-11-21T03:26:58;1.47;;;1.30;;
2710;SDS011;20721;47.402;8.550;2023-11-21T03:28:57;1.78;;;1.57;;
2710;SDS011;20721;47.402;8.550;2023-11-21T03:30:57;1.88;;;1.64;;
2710;SDS011;20721;47.402;8.550;2023-11-21T03:32:58;1.52;;;1.33;;
2710;SDS011;20721;47.402;8.550;2023-11-21T03:35:07;2.39;;;2.06;;
2710;SDS011;20721;47.402;8.550;2023-11-21T03:36:58;1.84;;;1.59;;
2710;SDS011;20721;47.402;8.550;2023-11-21T03:38:58;1.78;;;1.54;;
2710;SDS011;20721;47.402;8.550;2023-11-21T03:40:57;1.69;;;1.50;;
2710;SDS011;20721;47.402;8.550;2023-11-21T03:42:57;1.65;;;1.50;;
2710;SDS011;20721;47.402;8.550;2023-11-21T03:44:58;1.50;;;1.34;;
2710;SDS011;20721;47.402;8.550;2023-11-21T03:46:58;1.69;;;1.53;;
2710;SDS011;20721;47.402;8.550;2023-11-21T03:48:57;1.55;;;1.43;;
2710;SDS011;20721;47.402;8.550;2023-11-21T03:50:58;1.12;;;1.04;;
2710;SDS011;20721;47.402;8.550;2023-11-21T03:52:58;1.53;;;1.40;;
2710;SDS011;20721;47.402;8.550;2023-11-21T03:54:58;1.36;;;1.28;;
2710;SDS011;20721;47.402;8.550;2023-11-21T03:56:57;1.45;;;1.35;;
2710;SDS011;20721;47.402;8.550;2023-11-21T03:58:58;1.18;;;1.09;;
2710;SDS011;20721;47.402;8.550;2023-11-21T04:00:59;1.79;;;1.62;;
2710;SDS011;20721;47.402;8.550;2023-11-21T04:02:58;0.91;;;0.82;;
2710;SDS011;20721;47.402;8.550;2023-11-21T04:04:58;1.24;;;1.10;;
2710;SDS011;20721;47.402;8.550;2023-11-21T04:06:58;1.35;;;1.21;;
2710;SDS011;20721;47.402;8.550;2023-11-21T04:08:58;1.50;;;1.34;;
2710;SDS011;20721;47.402;8.550;2023-11-21T04:10:58;1.18;;;1.05;;
2710;SDS011;20721;47.402;8.550;2023-11-21T04:12:58;1.33;;;1.21;;
2710;SDS011;20721;47.402;8.550;2023-11-21T04:14:58;1.52;;;1.38;;
2710;SDS011;20721;47.402;8.550;2023-11-21T04:16:58;1.44;;;1.29;;
2710;SDS011;20721;47.402;8.550;2023-11-21T04:19:58;1.59;;;1.40;;
2710;SDS011;20721;47.402;8.550;2023-11-21T04:21:58;1.39;;;1.24;;
2710;SDS011;20721;47.402;8.550;2023-11-21T04:23:58;1.44;;;1.27;;
2710;SDS011;20721;47.402;8.550;2023-11-21T04:25:58;1.40;;;1.24;;
2710;SDS011;20721;47.402;8.550;2023-11-21T04:27:58;1.45;;;1.29;;
2710;SDS011;20721;47.402;8.550;2023-11-21T04:29:58;1.10;;;1.00;;
2710;SDS011;20721;47.402;8.550;2023-11-21T04:31:59;1.05;;;0.95;;
2710;SDS011;20721;47.402;8.550;2023-11-21T04:33:58;1.25;;;1.14;;
2710;SDS011;20721;47.402;8.550;2023-11-21T04:35:58;1.37;;;1.24;;
2710;SDS011;20721;47.402;8.550;2023-11-21T04:37:58;1.41;;;1.29;;
2710;SDS011;20721;47.402;8.550;2023-11-21T04:39:58;0.85;;;0.77;;
2710;SDS011;20721;47.402;8.550;2023-11-21T04:41:58;1.08;;;0.97;;
2710;SDS011;20721;47.402;8.550;2023-11-21T04:43:58;1.10;;;0.98;;
2710;SDS011;20721;47.402;8.550;2023-11-21T04:45:58;1.36;;;1.22;;
2710;SDS011;20721;47.402;8.550;2023-11-21T04:47:58;1.13;;;1.00;;
2710;SDS011;20721;47.402;8.550;2023-11-21T04:49:58;1.18;;;1.06;;
2710;SDS011;20721;47.402;8.550;2023-11-21T04:51:58;1.09;;;0.98;;
2710;SDS011;20721;47.402;8.550;2023-11-21T04:53:58;1.13;;;1.00;;
2710;SDS011;20721;47.402;8.550;2023-11-21T04:55:58;1.28;;;1.14;;
2710;SDS011;20721;47.402;8.550;2023-11-21T04:57:58;1.29;;;1.17;;
2710;SDS011;20721;47.402;8.550;2023-11-21T04:59:59;1.00;;;0.90;;
2710;SDS011;20721;47.402;8.550;2023-11-21T05:01:58;1.28;;;1.17;;
2710;SDS011;20721;47.402;8.550;2023-11-21T05:03:59;1.03;;;0.93;;
2710;SDS011;20721;47.402;8.550;2023-11-21T05:05:58;1.26;;;1.13;;
2710;SDS011;20721;47.402;8.550;2023-11-21T05:07:59;1.06;;;0.95;;
2710;SDS011;20721;47.402;8.550;2023-11-21T05:09:58;1.17;;;1.05;;
2710;SDS011;20721;47.402;8.550;2023-11-21T05:11:58;1.15;;;1.03;;
2710;SDS011;20721;47.402;8.550;2023-11-21T05:13:58;1.60;;;1.46;;
2710;SDS011;20721;47.402;8.550;2023-11-21T05:15:58;1.30;;;1.17;;
2710;SDS011;20721;47.402;8.550;2023-11-21T05:18:00;1.26;;;1.12;;
2710;SDS011;20721;47.402;8.550;2023-11-21T05:20:00;0.70;;;0.62;;
2710;SDS011;20721;47.402;8.550;2023-11-21T05:21:58;1.26;;;1.12;;
2710;SDS011;20721;47.402;8.550;2023-11-21T05:23:58;1.10;;;0.97;;
2710;SDS011;20721;47.402;8.550;2023-11-21T05:25:58;1.39;;;1.23;;
2710;SDS011;20721;47.402;8.550;2023-11-21T05:27:58;1.53;;;1.35;;
2710;SDS011;20721;47.402;8.550;2023-11-21T05:29:58;1.11;;;0.99;;
2710;SDS011;20721;47.402;8.550;2023-11-21T05:31:58;0.81;;;0.72;;
2710;SDS011;20721;47.402;8.550;2023-11-21T05:33:58;0.80;;;0.72;;
2710;SDS011;20721;47.402;8.550;2023-11-21T05:35:58;0.86;;;0.78;;
2710;SDS011;20721;47.402;8.550;2023-11-21T05:37:58;1.14;;;1.01;;
2710;SDS011;20721;47.402;8.550;2023-11-21T05:39:58;1.06;;;0.95;;
2710;SDS011;20721;47.402;8.550;2023-11-21T05:42:00;1.27;;;1.16;;
2710;SDS011;20721;47.402;8.550;2023-11-21T05:43:58;1.04;;;0.95;;
2710;SDS011;20721;47.402;8.550;2023-11-21T05:45:58;1.45;;;1.33;;
2710;SDS011;20721;47.402;8.550;2023-11-21T05:47:58;1.14;;;1.05;;
2710;SDS011;20721;47.402;8.550;2023-11-21T05:50:00;0.88;;;0.83;;
2710;SDS011;20721;47.402;8.550;2023-11-21T05:51:58;1.88;;;1.80;;
2710;SDS011;20721;47.402;8.550;2023-11-21T05:53:58;1.20;;;1.14;;
2710;SDS011;20721;47.402;8.550;2023-11-21T05:55:58;1.18;;;1.12;;
2710;SDS011;20721;47.402;8.550;2023-11-21T05:57:58;1.06;;;1.01;;
2710;SDS011;20721;47.402;8.550;2023-11-21T05:59:58;1.20;;;1.13;;
2710;SDS011;20721;47.402;8.550;2023-11-21T06:01:58;0.74;;;0.70;;
2710;SDS011;20721;47.402;8.550;2023-11-21T06:03:58;0.93;;;0.87;;
2710;SDS011;20721;47.402;8.550;2023-11-21T06:05:58;1.12;;;1.04;;
2710;SDS011;20721;47.402;8.550;2023-11-21T06:07:58;1.61;;;1.53;;
2710;SDS011;20721;47.402;8.550;2023-11-21T06:10:00;1.34;;;1.26;;
2710;SDS011;20721;47.402;8.550;2023-11-21T06:11:58;1.40;;;1.32;;
2710;SDS011;20721;47.402;8.550;2023-11-21T06:14:00;1.33;;;1.25;;
2710;SDS011;20721;47.402;8.550;2023-11-21T06:15:58;1.36;;;1.28;;
2710;SDS011;20721;47.402;8.550;2023-11-21T06:18:02;1.32;;;1.24;;
2710;SDS011;20721;47.402;8.550;2023-11-21T06:19:58;1.18;;;1.12;;
2710;SDS011;20721;47.402;8.550;2023-11-21T06:21:58;1.02;;;0.96;;
2710;SDS011;20721;47.402;8.550;2023-11-21T06:24:03;1.49;;;1.41;;
2710;SDS011;20721;47.402;8.550;2023-11-21T06:25:58;1.36;;;1.29;;
2710;SDS011;20721;47.402;8.550;2023-11-21T06:29:01;2.34;;;2.26;;
2710;SDS011;20721;47.402;8.550;2023-11-21T06:30:59;1.65;;;1.63;;
2710;SDS011;20721;47.402;8.550;2023-11-21T06:33:00;2.54;;;2.47;;
2710;SDS011;20721;47.402;8.550;2023-11-21T06:34:59;2.42;;;2.41;;
2710;SDS011;20721;47.402;8.550;2023-11-21T06:36:58;2.04;;;2.04;;
2710;SDS011;20721;47.402;8.550;2023-11-21T06:38:58;2.02;;;2.02;;
2710;SDS011;20721;47.402;8.550;2023-11-21T06:40:58;2.26;;;2.23;;
2710;SDS011;20721;47.402;8.550;2023-11-21T06:42:58;2.20;;;2.18;;
2710;SDS011;20721;47.402;8.550;2023-11-21T06:44:59;1.62;;;1.60;;
2710;SDS011;20721;47.402;8.550;2023-11-21T06:46:58;1.28;;;1.27;;
2710;SDS011;20721;47.402;8.550;2023-11-21T06:48:59;2.60;;;2.53;;
2710;SDS011;20721;47.402;8.550;2023-11-21T06:50:58;2.38;;;2.27;;
2710;SDS011;20721;47.402;8.550;2023-11-21T06:52:58;1.77;;;1.66;;
2710;SDS011;20721;47.402;8.550;2023-11-21T06:54:59;1.34;;;1.26;;
2710;SDS011;20721;47.402;8.550;2023-11-21T06:56:58;1.07;;;1.00;;
2710;SDS011;20721;47.402;8.550;2023-11-21T06:58:59;1.28;;;1.19;;
2710;SDS011;20721;47.402;8.550;2023-11-21T07:01:00;1.62;;;1.50;;
2710;SDS011;20721;47.402;8.550;2023-11-21T07:03:58;1.56;;;1.45;;
2710;SDS011;20721;47.402;8.550;2023-11-21T07:05:58;1.49;;;1.40;;
2710;SDS011;20721;47.402;8.550;2023-11-21T07:07:58;1.37;;;1.26;;
2710;SDS011;20721;47.402;8.550;2023-11-21T07:09:59;1.72;;;1.61;;
2710;SDS011;20721;47.402;8.550;2023-11-21T07:11:58;1.69;;;1.58;;
2710;SDS011;20721;47.402;8.550;2023-11-21T07:13:58;1.48;;;1.40;;
2710;SDS011;20721;47.402;8.550;2023-11-21T07:15:59;1.47;;;1.39;;
2710;SDS011;20721;47.402;8.550;2023-11-21T07:17:58;2.07;;;1.97;;
2710;SDS011;20721;47.402;8.550;2023-11-21T07:20:58;1.44;;;1.38;;
2710;SDS011;20721;47.402;8.550;2023-11-21T07:23:58;1.60;;;1.53;;
2710;SDS011;20721;47.402;8.550;2023-11-21T07:25:58;1.44;;;1.37;;
2710;SDS011;20721;47.402;8.550;2023-11-21T07:27:59;1.36;;;1.31;;
2710;SDS011;20721;47.402;8.550;2023-11-21T07:29:58;1.22;;;1.18;;
2710;SDS011;20721;47.402;8.550;2023-11-21T07:31:58;1.35;;;1.30;;
2710;SDS011;20721;47.402;8.550;2023-11-21T07:33:58;1.11;;;1.07;;
2710;SDS011;20721;47.402;8.550;2023-11-21T07:35:58;1.51;;;1.46;;
2710;SDS011;20721;47.402;8.550;2023-11-21T07:37:58;1.41;;;1.36;;
2710;SDS011;20721;47.402;8.550;2023-11-21T07:39:58;1.47;;;1.42;;
2710;SDS011;20721;47.402;8.550;2023-11-21T07:41:58;1.73;;;1.65;;
2710;SDS011;20721;47.402;8.550;2023-11-21T07:43:58;2.01;;;1.90;;
2710;SDS011;20721;47.402;8.550;2023-11-21T07:45:58;1.44;;;1.36;;
2710;SDS011;20721;47.402;8.550;2023-11-21T07:47:58;2.35;;;2.23;;
2710;SDS011;20721;47.402;8.550;2023-11-21T07:49:58;1.78;;;1.70;;
2710;SDS011;20721;47.402;8.550;2023-11-21T07:51:58;1.79;;;1.74;;
2710;SDS011;20721;47.402;8.550;2023-11-21T07:53:58;1.75;;;1.67;;
2710;SDS011;20721;47.402;8.550;2023-11-21T07:56:00;1.68;;;1.61;;
2710;SDS011;20721;47.402;8.550;2023-11-21T07:57:58;1.45;;;1.40;;
2710;SDS011;20721;47.402;8.550;2023-11-21T07:59:58;1.16;;;1.10;;
2710;SDS011;20721;47.402;8.550;2023-11-21T08:01:58;1.21;;;1.14;;
2710;SDS011;20721;47.402;8.550;2023-11-21T08:04:01;1.67;;;1.55;;
2710;SDS011;20721;47.402;8.550;2023-11-21T08:05:58;1.51;;;1.39;;
2710;SDS011;20721;47.402;8.550;2023-11-21T08:08:58;1.82;;;1.69;;
2710;SDS011;20721;47.402;8.550;2023-11-21T08:11:06;1.38;;;1.29;;
2710;SDS011;20721;47.402;8.550;2023-11-21T08:13:00;1.49;;;1.39;;
2710;SDS011;20721;47.402;8.550;2023-11-21T08:14:58;1.68;;;1.57;;
2710;SDS011;20721;47.402;8.550;2023-11-21T08:18:58;1.94;;;1.78;;
2710;SDS011;20721;47.402;8.550;2023-11-21T08:20:58;1.58;;;1.47;;
2710;SDS011;20721;47.402;8.550;2023-11-21T08:22:58;1.67;;;1.58;;
2710;SDS011;20721;47.402;8.550;2023-11-21T08:24:58;1.34;;;1.27;;
2710;SDS011;20721;47.402;8.550;2023-11-21T08:26:59;1.83;;;1.75;;
2710;SDS011;20721;47.402;8.550;2023-11-21T08:28:59;2.12;;;2.05;;
2710;SDS011;20721;47.402;8.550;2023-11-21T08:30:58;1.85;;;1.78;;
2710;SDS011;20721;47.402;8.550;2023-11-21T08:32:58;1.72;;;1.63;;
2710;SDS011;20721;47.402;8.550;2023-11-21T08:35:02;1.71;;;1.64;;
2710;SDS011;20721;47.402;8.550;2023-11-21T08:36:58;2.86;;;2.77;;
2710;SDS011;20721;47.402;8.550;2023-11-21T08:38:59;1.97;;;1.90;;
2710;SDS011;20721;47.402;8.550;2023-11-21T08:40:59;1.71;;;1.65;;
2710;SDS011;20721;47.402;8.550;2023-11-21T08:42:58;1.89;;;1.84;;
2710;SDS011;20721;47.402;8.550;2023-11-21T08:44:58;1.32;;;1.29;;
2710;SDS011;20721;47.402;8.550;2023-11-21T08:46:59;1.79;;;1.74;;
2710;SDS011;20721;47.402;8.550;2023-11-21T08:48:58;1.62;;;1.56;;
2710;SDS011;20721;47.402;8.550;2023-11-21T08:52:58;1.93;;;1.87;;
2710;SDS011;20721;47.402;8.550;2023-11-21T08:54:59;1.95;;;1.89;;
2710;SDS011;20721;47.402;8.550;2023-11-21T08:57:00;1.83;;;1.74;;
2710;SDS011;20721;47.402;8.550;2023-11-21T08:59:00;1.47;;;1.41;;
2710;SDS011;20721;47.402;8.550;2023-11-21T09:00:58;1.86;;;1.77;;
2710;SDS011;20721;47.402;8.550;2023-11-21T09:02:58;2.07;;;1.98;;
2710;SDS011;20721;47.402;8.550;2023-11-21T09:04:59;1.89;;;1.81;;
2710;SDS011;20721;47.402;8.550;2023-11-21T09:06:59;1.63;;;1.57;;
2710;SDS011;20721;47.402;8.550;2023-11-21T09:08:58;1.83;;;1.82;;
2710;SDS011;20721;47.402;8.550;2023-11-21T09:10:58;1.18;;;1.18;;
2710;SDS011;20721;47.402;8.550;2023-11-21T09:12:58;1.44;;;1.44;;
2710;SDS011;20721;47.402;8.550;2023-11-21T09:17:00;1.26;;;1.26;;
2710;SDS011;20721;47.402;8.550;2023-11-21T09:18:58;1.30;;;1.30;;
2710;SDS011;20721;47.402;8.550;2023-11-21T09:20:58;2.15;;;2.11;;
2710;SDS011;20721;47.402;8.550;2023-11-21T09:22:59;1.79;;;1.74;;
2710;SDS011;20721;47.402;8.550;2023-11-21T09:24:58;1.30;;;1.27;;
2710;SDS011;20721;47.402;8.550;2023-11-21T09:26:59;1.90;;;1.85;;
2710;SDS011;20721;47.402;8.550;2023-11-21T09:28:58;1.62;;;1.60;;
2710;SDS011;20721;47.402;8.550;2023-11-21T09:31:00;1.70;;;1.62;;
2710;SDS011;20721;47.402;8.550;2023-11-21T09:32:58;1.43;;;1.37;;
2710;SDS011;20721;47.402;8.550;2023-11-21T09:34:59;1.64;;;1.63;;
2710;SDS011;20721;47.402;8.550;2023-11-21T09:36:58;1.44;;;1.44;;
2710;SDS011;20721;47.402;8.550;2023-11-21T09:39:00;1.99;;;1.94;;
2710;SDS011;20721;47.402;8.550;2023-11-21T09:41:00;1.88;;;1.85;;
2710;SDS011;20721;47.402;8.550;2023-11-21T09:43:05;1.80;;;1.78;;
2710;SDS011;20721;47.402;8.550;2023-11-21T09:47:00;3.29;;;3.23;;
2710;SDS011;20721;47.402;8.550;2023-11-21T09:49:00;1.72;;;1.67;;
2710;SDS011;20721;47.402;8.550;2023-11-21T09:51:03;1.38;;;1.33;;
2710;SDS011;20721;47.402;8.550;2023-11-21T09:53:59;1.51;;;1.45;;
2710;SDS011;20721;47.402;8.550;2023-11-21T09:56:01;1.62;;;1.57;;
2710;SDS011;20721;47.402;8.550;2023-11-21T09:57:59;1.66;;;1.61;;
2710;SDS011;20721;47.402;8.550;2023-11-21T10:00:01;1.72;;;1.72;;
2710;SDS011;20721;47.402;8.550;2023-11-21T10:02:00;1.71;;;1.71;;
2710;SDS011;20721;47.402;8.550;2023-11-21T10:03:59;2.07;;;2.07;;
2710;SDS011;20721;47.402;8.550;2023-11-21T10:06:01;1.63;;;1.63;;
2710;SDS011;20721;47.402;8.550;2023-11-21T10:08:00;1.56;;;1.56;;
2710;SDS011;20721;47.402;8.550;2023-11-21T10:10:00;1.86;;;1.86;;
2710;SDS011;20721;47.402;8.550;2023-11-21T10:11:59;1.70;;;1.68;;
2710;SDS011;20721;47.402;8.550;2023-11-21T10:13:59;1.68;;;1.68;;
2710;SDS011;20721;47.402;8.550;2023-11-21T10:16:00;1.79;;;1.79;;
2710;SDS011;20721;47.402;8.550;2023-11-21T10:17:59;1.24;;;1.24;;
2710;SDS011;20721;47.402;8.550;2023-11-21T10:19:59;1.84;;;1.84;;
2710;SDS011;20721;47.402;8.550;2023-11-21T10:21:59;1.90;;;1.90;;
2710;SDS011;20721;47.402;8.550;2023-11-21T10:24:00;1.47;;;1.47;;
2710;SDS011;20721;47.402;8.550;2023-11-21T10:26:01;1.96;;;1.96;;
2710;SDS011;20721;47.402;8.550;2023-11-21T10:28:07;1.84;;;1.84;;
2710;SDS011;20721;47.402;8.550;2023-11-21T10:30:02;1.75;;;1.75;;
2710;SDS011;20721;47.402;8.550;2023-11-21T10:32:01;1.71;;;1.71;;
2710;SDS011;20721;47.402;8.550;2023-11-21T10:34:14;1.61;;;1.61;;
2710;SDS011;20721;47.402;8.550;2023-11-21T10:36:04;1.82;;;1.82;;
2710;SDS011;20721;47.402;8.550;2023-11-21T10:38:09;1.83;;;1.83;;
2710;SDS011;20721;47.402;8.550;2023-11-21T10:39:58;1.86;;;1.86;;
2710;SDS011;20721;47.402;8.550;2023-11-21T10:41:59;2.01;;;2.00;;
2710;SDS011;20721;47.402;8.550;2023-11-21T10:43:59;1.73;;;1.73;;
2710;SDS011;20721;47.402;8.550;2023-11-21T10:45:59;2.09;;;2.08;;
2710;SDS011;20721;47.402;8.550;2023-11-21T10:48:01;1.52;;;1.52;;
2710;SDS011;20721;47.402;8.550;2023-11-21T10:50:00;1.39;;;1.39;;
2710;SDS011;20721;47.402;8.550;2023-11-21T10:51:59;1.57;;;1.57;;
2710;SDS011;20721;47.402;8.550;2023-11-21T10:54:02;1.61;;;1.61;;
2710;SDS011;20721;47.402;8.550;2023-11-21T10:56:06;2.22;;;2.20;;
2710;SDS011;20721;47.402;8.550;2023-11-21T10:58:01;1.88;;;1.86;;
2710;SDS011;20721;47.402;8.550;2023-11-21T10:59:59;1.38;;;1.35;;
2710;SDS011;20721;47.402;8.550;2023-11-21T11:02:00;1.38;;;1.36;;
2710;SDS011;20721;47.402;8.550;2023-11-21T11:04:00;1.72;;;1.72;;
2710;SDS011;20721;47.402;8.550;2023-11-21T11:07:01;1.45;;;1.44;;
2710;SDS011;20721;47.402;8.550;2023-11-21T11:08:59;1.64;;;1.64;;
2710;SDS011;20721;47.402;8.550;2023-11-21T11:12:03;1.66;;;1.66;;
2710;SDS011;20721;47.402;8.550;2023-11-21T11:14:00;1.55;;;1.55;;
2710;SDS011;20721;47.402;8.550;2023-11-21T11:15:59;1.77;;;1.77;;
2710;SDS011;20721;47.402;8.550;2023-11-21T11:17:59;1.17;;;1.17;;
2710;SDS011;20721;47.402;8.550;2023-11-21T11:19:59;1.25;;;1.25;;
2710;SDS011;20721;47.402;8.550;2023-11-21T11:24:41;1.26;;;1.26;;
2710;SDS011;20721;47.402;8.550;2023-11-21T11:26:39;1.26;;;1.26;;
2710;SDS011;20721;47.402;8.550;2023-11-21T11:28:19;1.37;;;1.37;;
2710;SDS011;20721;47.402;8.550;2023-11-21T11:37:59;1.90;;;1.90;;
2710;SDS011;20721;47.402;8.550;2023-11-21T11:39:59;1.69;;;1.69;;
2710;SDS011;20721;47.402;8.550;2023-11-21T11:42:03;1.71;;;1.70;;
2710;SDS011;20721;47.402;8.550;2023-11-21T11:43:59;1.44;;;1.43;;
2710;SDS011;20721;47.402;8.550;2023-11-21T11:46:03;1.55;;;1.54;;
2710;SDS011;20721;47.402;8.550;2023-11-21T11:48:06;1.24;;;1.24;;
2710;SDS011;20721;47.402;8.550;2023-11-21T11:51:15;1.71;;;1.71;;
2710;SDS011;20721;47.402;8.550;2023-11-21T11:53:16;1.97;;;1.97;;
2710;SDS011;20721;47.402;8.550;2023-11-21T11:54:59;1.83;;;1.83;;
2710;SDS011;20721;47.402;8.550;2023-11-21T11:56:59;1.74;;;1.74;;
2710;SDS011;20721;47.402;8.550;2023-11-21T11:59:01;1.84;;;1.84;;
2710;SDS011;20721;47.402;8.550;2023-11-21T12:02:00;1.32;;;1.32;;
2710;SDS011;20721;47.402;8.550;2023-11-21T12:04:30;1.65;;;1.65;;
2710;SDS011;20721;47.402;8.550;2023-11-21T12:06:00;1.36;;;1.36;;
2710;SDS011;20721;47.402;8.550;2023-11-21T12:08:02;1.50;;;1.50;;
2710;SDS011;20721;47.402;8.550;2023-11-21T12:09:59;1.58;;;1.58;;
2710;SDS011;20721;47.402;8.550;2023-11-21T12:11:59;1.80;;;1.80;;
2710;SDS011;20721;47.402;8.550;2023-11-21T12:14:02;1.63;;;1.63;;
2710;SDS011;20721;47.402;8.550;2023-11-21T12:15:59;1.16;;;1.16;;
2710;SDS011;20721;47.402;8.550;2023-11-21T12:17:59;1.70;;;1.70;;
2710;SDS011;20721;47.402;8.550;2023-11-21T12:20:02;1.25;;;1.25;;
2710;SDS011;20721;47.402;8.550;2023-11-21T12:22:00;1.90;;;1.90;;
2710;SDS011;20721;47.402;8.550;2023-11-21T12:24:59;1.52;;;1.52;;
2710;SDS011;20721;47.402;8.550;2023-11-21T12:28:01;1.15;;;1.15;;
2710;SDS011;20721;47.402;8.550;2023-11-21T12:29:59;1.44;;;1.44;;
2710;SDS011;20721;47.402;8.550;2023-11-21T12:32:00;1.30;;;1.30;;
2710;SDS011;20721;47.402;8.550;2023-11-21T12:33:59;1.36;;;1.36;;
2710;SDS011;20721;47.402;8.550;2023-11-21T12:35:59;1.38;;;1.38;;
2710;SDS011;20721;47.402;8.550;2023-11-21T12:37:59;1.38;;;1.38;;
2710;SDS011;20721;47.402;8.550;2023-11-21T12:39:59;1.60;;;1.60;;
2710;SDS011;20721;47.402;8.550;2023-11-21T12:43:01;1.05;;;1.05;;
2710;SDS011;20721;47.402;8.550;2023-11-21T12:46:59;3.01;;;3.01;;
2710;SDS011;20721;47.402;8.550;2023-11-21T12:48:59;4.03;;;4.03;;
2710;SDS011;20721;47.402;8.550;2023-11-21T12:51:03;3.21;;;3.20;;
2710;SDS011;20721;47.402;8.550;2023-11-21T12:53:03;2.93;;;2.93;;
2710;SDS011;20721;47.402;8.550;2023-11-21T12:54:59;1.74;;;1.73;;
2710;SDS011;20721;47.402;8.550;2023-11-21T12:56:59;1.87;;;1.87;;
2710;SDS011;20721;47.402;8.550;2023-11-21T12:59:03;1.50;;;1.50;;
2710;SDS011;20721;47.402;8.550;2023-11-21T13:00:59;2.46;;;2.46;;
2710;SDS011;20721;47.402;8.550;2023-11-21T13:05:02;2.32;;;2.32;;
2710;SDS011;20721;47.402;8.550;2023-11-21T13:10:02;1.59;;;1.59;;